Time;durP1;ratioP1;P1;durP2;ratioP2;P2;SDS_P1;SDS_P2;PMS_P1;PMS_P2;Temp;Humidity;BMP_temperature;BMP_pressure;BME280_temperature;BME280_humidity;BME280_pressure;Samples;Min_cycle;Max_cycle;Signal;HPM_P1;HPM_P2
2021/01/28 00:08:51;;;;;;;53.60;16.82;;;;;;;0.87;100.00;99865.03;10318152;85;21077;-84
2021/01/28 00:23:55;;;;;;;99.95;30.75;;;;;;;0.93;100.00;99859.55;10253038;87;22246;-84
2021/01/28 00:38:59;;;;;;;116.00;37.60;;;;;;;0.93;100.00;99835.01;10460776;85;21327;-84
2021/01/28 00:54:06;;;;;;;102.50;40.27;;;;;;;0.82;100.00;99819.64;10459253;85;21097;-84
2021/01/28 01:09:11;;;;;;;43.10;17.67;;;;;;;0.64;100.00;99807.27;10461795;85;21094;-84
2021/01/28 01:24:16;;;;;;;25.80;11.65;;;;;;;0.37;100.00;99794.13;10282665;87;21074;-82
2021/01/28 01:39:21;;;;;;;30.88;14.28;;;;;;;0.19;100.00;99783.48;10286197;85;21245;-83
2021/01/28 01:54:31;;;;;;;38.08;13.68;;;;;;;0.16;100.00;99759.97;10462751;85;21034;-84
2021/01/28 02:09:35;;;;;;;27.10;11.60;;;;;;;0.15;100.00;99724.30;10286297;85;21250;-83
2021/01/28 02:24:50;;;;;;;26.73;13.00;;;;;;;0.25;100.00;99713.48;10298255;85;21080;-83
2021/01/28 02:39:54;;;;;;;32.85;13.68;;;;;;;0.34;100.00;99691.04;10531229;84;21114;-83
2021/01/28 02:54:59;;;;;;;26.97;10.18;;;;;;;0.28;100.00;99663.84;10309610;86;21443;-83
2021/01/28 03:10:05;;;;;;;21.35;9.65;;;;;;;0.33;100.00;99630.88;10310419;85;21061;-84
2021/01/28 03:25:13;;;;;;;16.00;8.40;;;;;;;0.30;100.00;99616.86;10477056;84;21137;-84
2021/01/28 03:40:20;;;;;;;16.40;8.75;;;;;;;0.32;100.00;99598.23;10253325;85;21187;-84
2021/01/28 03:55:25;;;;;;;22.15;9.33;;;;;;;0.36;100.00;99570.95;10426704;85;21101;-84
2021/01/28 04:10:34;;;;;;;15.83;9.23;;;;;;;0.32;100.00;99524.70;10426743;85;21598;-83
2021/01/28 04:25:38;;;;;;;18.23;8.70;;;;;;;0.28;100.00;99496.13;10426589;84;21598;-84
2021/01/28 04:40:47;;;;;;;20.27;8.68;;;;;;;0.18;100.00;99483.37;10081189;87;21088;-84
2021/01/28 04:55:54;;;;;;;19.48;9.38;;;;;;;0.25;100.00;99463.21;10427074;85;21129;-84
2021/01/28 05:11:01;;;;;;;32.08;14.15;;;;;;;0.24;100.00;99438.33;10424960;85;21058;-85
2021/01/28 05:26:29;;;;;;;28.70;14.33;;;;;;;0.19;100.00;99424.42;9860890;89;21132;-85
2021/01/28 05:41:39;;;;;;;29.72;14.73;;;;;;;0.12;100.00;99412.34;10314555;85;21117;-86
2021/01/28 05:57:00;;;;;;;27.93;13.48;;;;;;;0.06;100.00;99395.12;10461292;85;21553;-85
2021/01/28 06:12:24;;;;;;;37.90;17.85;;;;;;;0.18;100.00;99384.53;10462442;85;21117;-84
2021/01/28 06:28:26;;;;;;;134.00;60.43;;;;;;;0.08;100.00;99359.73;10284618;85;21130;-85
2021/01/28 06:43:43;;;;;;;52.43;27.40;;;;;;;0.09;100.00;99345.48;10086688;88;21262;-84
2021/01/28 06:59:03;;;;;;;44.73;20.88;;;;;;;0.16;100.00;99305.48;10286247;86;21174;-85
2021/01/28 07:14:29;;;;;;;53.58;30.25;;;;;;;-0.18;100.00;99251.25;10228427;86;21031;-85
2021/01/28 07:30:12;;;;;;;45.55;26.00;;;;;;;-0.40;100.00;99256.84;10098748;87;21721;-84
2021/01/28 07:45:34;;;;;;;45.25;22.60;;;;;;;0.19;100.00;99198.70;10456256;85;21090;-85
2021/01/28 08:00:43;;;;;;;40.12;21.12;;;;;;;-0.19;100.00;99198.84;10394192;85;21528;-80
2021/01/28 08:15:54;;;;;;;44.25;20.27;;;;;;;0.53;100.00;99208.64;10417403;85;21216;-83
2021/01/28 08:31:04;;;;;;;40.30;19.35;;;;;;;0.59;100.00;99188.43;10525889;84;21166;-84
2021/01/28 08:46:13;;;;;;;44.38;21.45;;;;;;;0.36;100.00;99181.33;10532247;84;21076;-84
2021/01/28 09:01:20;;;;;;;51.02;27.05;;;;;;;0.16;100.00;99162.32;10496922;84;21013;-79
2021/01/28 09:16:25;;;;;;;46.07;23.10;;;;;;;0.30;100.00;99114.18;10428384;84;21071;-78
2021/01/28 09:31:32;;;;;;;113.80;54.23;;;;;;;0.30;100.00;99114.18;10506021;84;21118;-79
2021/01/28 09:46:37;;;;;;;53.83;24.17;;;;;;;0.13;100.00;99028.41;10579722;84;21237;-79
2021/01/28 10:01:42;;;;;;;82.22;37.42;;;;;;;0.13;100.00;99028.41;10538782;84;21158;-79
2021/01/28 10:16:47;;;;;;;61.23;35.58;;;;;;;0.11;100.00;99019.11;10506028;84;21111;-79
2021/01/28 10:31:52;;;;;;;56.63;25.50;;;;;;;0.21;100.00;98991.80;10410477;84;21014;-79
2021/01/28 10:46:57;;;;;;;62.30;33.50;;;;;;;0.18;100.00;98986.00;10398319;85;21248;-78
2021/01/28 11:02:03;;;;;;;46.43;23.07;;;;;;;-0.32;100.00;98947.92;9840783;88;21080;-80
2021/01/28 11:17:07;;;;;;;68.22;28.50;;;;;;;-0.06;100.00;98926.89;10282461;85;21660;-79
2021/01/28 11:32:12;;;;;;;49.30;24.12;;;;;;;0.04;100.00;98927.58;10432771;84;21530;-80
2021/01/28 11:47:17;;;;;;;62.48;29.12;;;;;;;-0.24;100.00;98903.17;10428454;84;21027;-82
2021/01/28 12:02:22;;;;;;;66.55;29.95;;;;;;;-0.12;100.00;98880.91;10433985;85;21170;-84
2021/01/28 12:17:26;;;;;;;62.88;28.60;;;;;;;0.33;100.00;98864.55;10434023;85;21062;-82
2021/01/28 12:32:31;;;;;;;65.05;29.10;;;;;;;0.45;100.00;98858.17;10435671;84;21535;-78
2021/01/28 12:47:36;;;;;;;94.95;39.95;;;;;;;0.56;100.00;98852.30;10434668;85;21030;-78
2021/01/28 13:02:41;;;;;;;115.32;51.02;;;;;;;0.60;100.00;98835.66;10425242;85;21906;-78
2021/01/28 13:17:45;;;;;;;74.58;35.38;;;;;;;0.79;100.00;98817.95;10433093;85;21141;-78
2021/01/28 13:32:50;;;;;;;82.62;40.52;;;;;;;1.00;100.00;98788.92;10435419;84;21660;-77
2021/01/28 13:47:56;;;;;;;106.07;40.90;;;;;;;1.11;100.00;98773.48;10422599;85;21086;-80
2021/01/28 14:03:02;;;;;;;89.20;39.30;;;;;;;1.17;100.00;98774.79;10432238;85;21177;-81
2021/01/28 14:18:11;;;;;;;67.20;29.80;;;;;;;1.28;100.00;98740.41;10428198;85;21125;-80
2021/01/28 14:33:13;;;;;;;82.30;37.57;;;;;;;2.31;100.00;98733.07;10513462;84;21125;-79
2021/01/28 14:48:18;;;;;;;103.07;43.40;;;;;;;1.27;100.00;98730.55;10496944;84;21115;-78
2021/01/28 15:03:23;;;;;;;73.67;34.70;;;;;;;0.85;100.00;98725.50;10537057;84;21122;-80
2021/01/28 15:18:27;;;;;;;94.83;43.83;;;;;;;0.95;100.00;98705.80;10531589;84;21008;-81
2021/01/28 15:33:34;;;;;;;169.60;68.70;;;;;;;0.94;100.00;98693.84;10590223;84;21360;-82
2021/01/28 15:48:39;;;;;;;100.87;49.67;;;;;;;0.90;100.00;98693.69;10599720;84;21038;-85
2021/01/28 16:03:44;;;;;;;92.47;46.95;;;;;;;0.78;100.00;98687.66;10439549;85;21581;-84
2021/01/28 16:18:49;;;;;;;249.32;97.82;;;;;;;0.60;100.00;98693.70;10289931;85;21015;-85
2021/01/28 16:33:54;;;;;;;104.30;43.33;;;;;;;0.73;100.00;98678.98;10562231;84;21492;-85
2021/01/28 16:48:58;;;;;;;109.07;48.75;;;;;;;0.73;100.00;98678.98;10567674;84;21039;-85
2021/01/28 17:04:04;;;;;;;95.05;39.92;;;;;;;0.76;100.00;98672.77;10571228;84;21627;-84
2021/01/28 17:19:08;;;;;;;34.30;16.27;;;;;;;0.60;100.00;98669.19;10534723;84;21099;-84
2021/01/28 17:34:13;;;;;;;279.73;95.32;;;;;;;0.20;100.00;98677.19;10566731;84;21098;-83
2021/01/28 17:49:17;;;;;;;306.80;90.47;;;;;;;-0.05;100.00;98655.25;10578373;84;21082;-84
2021/01/28 18:04:22;;;;;;;104.03;32.28;;;;;;;-0.19;100.00;98665.23;10540445;84;21212;-82
2021/01/28 18:19:27;;;;;;;46.35;15.00;;;;;;;-0.53;100.00;98674.01;10555725;84;21619;-83
2021/01/28 18:34:31;;;;;;;65.05;21.20;;;;;;;-0.76;100.00;98663.14;10577369;84;21142;-83
2021/01/28 18:49:36;;;;;;;31.23;13.30;;;;;;;-0.98;100.00;98659.41;10545722;84;21071;-84
2021/01/28 19:04:40;;;;;;;65.20;23.87;;;;;;;-1.06;100.00;98662.48;10461701;84;21127;-81
2021/01/28 19:19:45;;;;;;;97.45;33.63;;;;;;;-1.00;100.00;98658.70;10497507;84;21058;-86
2021/01/28 19:34:50;;;;;;;45.03;16.65;;;;;;;-1.09;100.00;98646.44;10502528;84;21105;-86
2021/01/28 19:49:55;;;;;;;47.87;14.30;;;;;;;-1.02;100.00;98630.48;10471103;84;21465;-87
2021/01/28 20:05:00;;;;;;;38.90;12.05;;;;;;;-0.89;100.00;98634.33;10472388;84;21142;-84
2021/01/28 20:20:09;;;;;;;22.87;9.65;;;;;;;-0.91;100.00;98627.19;10490524;84;20999;-84
2021/01/28 20:35:17;;;;;;;36.25;12.23;;;;;;;-0.92;100.00;98616.52;10487855;84;21431;-86
2021/01/28 20:50:23;;;;;;;24.30;9.50;;;;;;;-1.00;100.00;98618.80;10493605;84;21474;-87
2021/01/28 21:05:28;;;;;;;;;;;;;;;-1.07;100.00;98600.36;10524265;84;21117;-88
2021/01/28 21:20:33;;;;;;;33.08;12.45;;;;;;;-1.07;100.00;98594.38;10544663;84;20244;-87
2021/01/28 21:35:40;;;;;;;43.80;14.63;;;;;;;-1.05;100.00;98598.50;10477471;84;21059;-85
2021/01/28 21:50:52;;;;;;;24.27;9.55;;;;;;;-1.07;100.00;98594.38;10487252;84;21039;-86
2021/01/28 22:05:52;;;;;;;24.65;8.48;;;;;;;-1.13;100.00;98587.09;10474546;84;21053;-85
2021/01/28 22:20:57;;;;;;;26.50;9.68;;;;;;;-1.08;100.00;98577.28;10447433;84;21111;-86
2021/01/28 22:36:03;;;;;;;16.07;7.15;;;;;;;-1.18;100.00;98565.02;10405932;84;21055;-85
2021/01/28 22:51:06;;;;;;;;;;;;;;;-1.50;100.00;98551.74;10387634;84;21071;-85
2021/01/28 23:06:12;;;;;;;14.73;5.75;;;;;;;-1.77;100.00;98542.79;10415805;84;20162;-85
2021/01/28 23:21:20;;;;;;;36.93;10.73;;;;;;;-1.88;100.00;98534.02;10411184;84;21119;-86
2021/01/28 23:36:25;;;;;;;24.72;9.25;;;;;;;-1.95;100.00;98535.80;10513000;84;21217;-87
2021/01/28 23:51:29;;;;;;;17.90;6.50;;;;;;;-1.69;100.00;98532.38;10536294;84;21224;-87
